createdAt,value
2022-12-11T00:04:23.868Z,79.15
2022-12-11T00:09:27.059Z,79.17
2022-12-11T00:14:30.119Z,79.10
2022-12-11T00:19:36.046Z,78.98
2022-12-11T00:24:39.077Z,78.58
2022-12-11T00:29:43.565Z,78.63
2022-12-11T00:34:46.536Z,78.91
2022-12-11T00:39:55.225Z,78.95
2022-12-11T00:44:58.242Z,78.92
2022-12-11T00:50:01.219Z,78.84
2022-12-11T00:55:05.919Z,78.43
2022-12-11T01:00:10.809Z,78.67
2022-12-11T01:05:14.042Z,78.90
2022-12-11T01:10:26.087Z,78.95
2022-12-11T01:15:32.750Z,78.76
2022-12-11T01:20:40.150Z,78.86
2022-12-11T01:25:44.112Z,78.51
2022-12-11T01:30:50.117Z,78.53
2022-12-11T01:35:54.420Z,78.52
2022-12-11T01:40:57.440Z,78.56
2022-12-11T01:46:00.881Z,78.00
2022-12-11T01:51:05.933Z,78.06
2022-12-11T01:56:10.404Z,77.65
2022-12-11T02:01:26.323Z,77.74
2022-12-11T02:06:52.157Z,77.86
2022-12-11T02:12:14.018Z,77.80
2022-12-11T02:17:37.772Z,77.87
2022-12-11T02:23:26.458Z,77.89
2022-12-11T02:28:56.122Z,77.36
2022-12-11T02:34:08.734Z,77.51
2022-12-11T02:39:15.968Z,77.45
2022-12-11T02:44:27.749Z,77.74
2022-12-11T02:49:34.403Z,77.46
2022-12-11T02:54:39.694Z,77.36
2022-12-11T02:59:45.599Z,77.20
2022-12-11T03:04:48.870Z,77.54
2022-12-11T03:09:52.524Z,77.53
2022-12-11T03:14:57.893Z,77.81
2022-12-11T03:20:20.495Z,77.35
2022-12-11T03:25:36.058Z,77.41
2022-12-11T03:30:40.384Z,77.85
2022-12-11T03:35:49.994Z,77.52
2022-12-11T03:40:58.321Z,77.32
2022-12-11T03:46:02.110Z,77.16
2022-12-11T03:51:07.606Z,77.36
2022-12-11T03:56:14.124Z,77.35
2022-12-11T04:01:17.202Z,77.31
2022-12-11T04:06:20.223Z,77.38
2022-12-11T04:11:35.589Z,77.22
2022-12-11T04:16:38.868Z,77.12
2022-12-11T04:22:00.922Z,77.26
2022-12-11T04:27:04.184Z,76.99
2022-12-11T04:32:07.327Z,77.09
2022-12-11T04:37:10.342Z,77.36
2022-12-11T04:42:13.353Z,77.42
2022-12-11T04:47:16.391Z,77.81
2022-12-11T04:52:19.467Z,77.97
2022-12-11T04:57:22.645Z,77.79
2022-12-11T05:02:26.756Z,77.81
2022-12-11T05:07:29.775Z,77.84
2022-12-11T05:12:33.502Z,77.88
2022-12-11T05:17:36.525Z,77.93
2022-12-11T05:22:39.562Z,78.15
2022-12-11T05:27:42.599Z,78.27
2022-12-11T05:32:45.641Z,78.38
2022-12-11T05:37:48.642Z,78.36
2022-12-11T05:42:51.946Z,78.43
2022-12-11T05:47:56.156Z,78.54
2022-12-11T05:52:59.181Z,78.37
2022-12-11T05:58:02.233Z,78.44
2022-12-11T06:03:06.327Z,78.41
2022-12-11T06:08:09.605Z,77.76
2022-12-11T06:13:13.117Z,77.80
2022-12-11T06:18:16.185Z,77.81
2022-12-11T06:23:19.179Z,77.94
2022-12-11T06:28:22.174Z,77.79
2022-12-11T06:33:26.026Z,78.02
2022-12-11T06:38:29.420Z,78.21
2022-12-11T06:43:37.051Z,78.41
2022-12-11T06:48:42.386Z,78.20
2022-12-11T06:53:46.142Z,78.57
2022-12-11T06:58:49.767Z,78.24
2022-12-11T07:03:54.899Z,78.32
2022-12-11T07:08:57.889Z,78.51
2022-12-11T07:14:01.199Z,78.14
2022-12-11T07:19:04.973Z,78.13
2022-12-11T07:24:08.938Z,77.94
2022-12-11T07:29:11.989Z,77.95
2022-12-11T07:34:15.039Z,77.87
2022-12-11T07:39:18.032Z,77.66
2022-12-11T07:44:21.147Z,77.60
2022-12-11T07:49:24.245Z,77.23
2022-12-11T07:54:27.268Z,77.16
2022-12-11T07:59:30.348Z,76.99
2022-12-11T08:04:33.333Z,76.63
2022-12-11T08:09:36.328Z,76.71
2022-12-11T08:14:39.362Z,76.49
2022-12-11T08:19:42.333Z,76.40
2022-12-11T08:24:47.383Z,76.24
2022-12-11T08:29:50.426Z,76.46
2022-12-11T08:34:53.429Z,76.05
2022-12-11T08:39:56.424Z,75.61
2022-12-11T08:44:59.823Z,75.33
2022-12-11T08:50:04.141Z,75.73
2022-12-11T08:55:08.773Z,75.97
2022-12-11T09:00:13.581Z,75.68
2022-12-11T09:05:16.812Z,75.46
2022-12-11T09:10:20.083Z,75.21
2022-12-11T09:15:23.291Z,75.06
2022-12-11T09:20:26.297Z,75.32
2022-12-11T09:25:29.281Z,74.87
2022-12-11T09:30:32.352Z,74.59
2022-12-11T09:35:35.401Z,75.01
2022-12-11T09:40:43.539Z,74.97
2022-12-11T09:45:50.232Z,75.07
2022-12-11T09:50:55.536Z,75.37
2022-12-11T09:56:23.571Z,74.65
2022-12-11T10:02:17.738Z,74.59
2022-12-11T10:07:33.822Z,74.44
2022-12-11T10:12:48.835Z,73.78
2022-12-11T10:17:59.886Z,74.27
2022-12-11T10:23:19.753Z,74.41
2022-12-11T10:28:23.232Z,74.24
2022-12-11T11:19:03.197Z,73.33
2022-12-11T11:24:06.505Z,72.29
2022-12-11T11:29:34.694Z,72.30
2022-12-11T11:34:40.768Z,71.87
2022-12-11T11:39:45.308Z,72.23
2022-12-11T11:45:12.250Z,72.72
2022-12-11T11:50:22.619Z,72.63
2022-12-11T11:56:12.528Z,72.79
2022-12-11T12:01:19.521Z,72.49
2022-12-11T12:06:39.756Z,72.43
2022-12-11T12:12:33.807Z,72.67
2022-12-11T12:17:56.689Z,72.13
2022-12-11T12:23:17.536Z,72.21
2022-12-11T12:28:53.831Z,72.64
2022-12-11T12:34:31.195Z,72.77
2022-12-11T12:40:19.870Z,72.51
2022-12-11T12:45:35.173Z,72.07
2022-12-11T12:50:46.550Z,72.26
2022-12-11T12:55:50.274Z,72.32
2022-12-11T13:00:54.073Z,72.27
2022-12-11T13:06:01.325Z,71.97
2022-12-11T13:11:10.011Z,71.89
2022-12-11T13:16:16.204Z,72.10
2022-12-11T13:21:41.025Z,72.36
2022-12-11T13:26:44.989Z,72.25
2022-12-11T13:32:00.628Z,72.34
2022-12-11T13:37:05.404Z,72.59
2022-12-11T13:42:39.431Z,72.37
2022-12-11T13:47:42.613Z,72.05
2022-12-11T13:53:00.632Z,72.03
2022-12-11T13:58:03.639Z,72.77
2022-12-11T14:03:09.857Z,72.96
2022-12-11T14:08:20.729Z,73.05
2022-12-11T14:13:30.225Z,73.14
2022-12-11T14:18:36.806Z,73.15
2022-12-11T14:23:39.797Z,73.15
2022-12-11T14:28:43.681Z,73.29
2022-12-11T14:33:54.184Z,73.06
2022-12-11T14:39:14.130Z,72.88
2022-12-11T14:44:22.358Z,73.36
2022-12-11T14:49:25.338Z,73.25
2022-12-11T14:54:41.606Z,73.27
2022-12-11T14:59:48.285Z,73.22
2022-12-11T15:05:18.805Z,73.39
2022-12-11T15:10:32.501Z,73.50
2022-12-11T15:15:45.675Z,73.57
2022-12-11T15:21:03.576Z,73.96
2022-12-11T15:26:06.859Z,74.03
2022-12-11T15:31:31.511Z,74.06
2022-12-11T15:36:36.913Z,73.72
2022-12-11T15:41:43.384Z,73.39
2022-12-11T15:46:46.452Z,72.81
2022-12-11T15:51:49.451Z,73.22
2022-12-11T15:56:52.424Z,73.42
2022-12-11T16:01:55.500Z,73.36
2022-12-11T16:06:58.528Z,73.33
2022-12-11T16:12:01.798Z,73.49
2022-12-11T16:17:07.330Z,73.75
2022-12-11T16:22:12.314Z,73.77
2022-12-11T16:27:21.458Z,73.90
2022-12-11T16:32:26.103Z,73.61
2022-12-11T16:37:29.221Z,73.47
2022-12-11T16:42:32.979Z,73.49
2022-12-11T16:47:36.498Z,73.60
2022-12-11T16:52:39.918Z,73.45
2022-12-11T16:57:42.978Z,73.49
2022-12-11T17:02:46.012Z,73.54
2022-12-11T17:07:49.117Z,73.10
2022-12-11T17:12:52.174Z,73.19
2022-12-11T17:17:55.200Z,73.34
2022-12-11T17:22:58.699Z,73.24
2022-12-11T17:28:01.701Z,72.90
2022-12-11T17:33:04.871Z,73.19
2022-12-11T17:38:08.016Z,73.35
2022-12-11T17:43:12.203Z,73.05
2022-12-11T17:48:16.226Z,72.83
2022-12-11T17:53:20.808Z,72.65
2022-12-11T17:58:23.831Z,72.68
2022-12-11T18:03:28.792Z,73.08
2022-12-11T18:08:33.074Z,73.10
2022-12-11T18:13:36.420Z,73.14
2022-12-11T18:18:40.217Z,73.02
2022-12-11T18:23:44.364Z,72.57
2022-12-11T18:28:51.242Z,73.03
2022-12-11T18:33:54.335Z,73.37
2022-12-11T18:38:57.418Z,73.37
2022-12-11T18:44:05.175Z,73.67
2022-12-11T18:49:11.169Z,73.37
2022-12-11T18:54:14.212Z,73.19
2022-12-11T18:59:17.486Z,73.27
2022-12-11T19:04:20.611Z,73.43
2022-12-11T19:09:23.699Z,73.31
2022-12-11T19:14:26.736Z,72.96
2022-12-11T19:19:29.775Z,72.72
2022-12-11T19:24:32.848Z,72.80
2022-12-11T19:29:36.070Z,72.87
2022-12-11T19:34:39.442Z,72.98
2022-12-11T19:39:42.465Z,73.03
2022-12-11T19:44:45.520Z,72.82
2022-12-11T19:49:49.084Z,72.69
2022-12-11T19:54:52.166Z,72.96
2022-12-11T19:59:57.385Z,73.25
2022-12-11T20:05:00.623Z,73.24
2022-12-11T20:10:03.925Z,73.15
2022-12-11T20:15:07.537Z,73.14
2022-12-11T20:20:11.995Z,73.07
2022-12-11T20:25:15.074Z,72.78
2022-12-11T20:30:19.470Z,72.83
2022-12-11T20:35:22.454Z,72.95
2022-12-11T20:40:25.476Z,72.91
2022-12-11T20:45:28.561Z,72.89
2022-12-11T20:50:31.621Z,72.92
2022-12-11T20:55:34.696Z,72.93
2022-12-11T21:00:39.673Z,72.66
2022-12-11T21:05:45.295Z,72.44
2022-12-11T21:10:48.313Z,72.49
2022-12-11T21:15:52.858Z,72.50
2022-12-11T21:20:57.583Z,72.93
2022-12-11T21:26:00.992Z,72.88
2022-12-11T21:31:08.255Z,72.53
2022-12-11T21:36:13.717Z,72.44
2022-12-11T21:41:22.379Z,72.48
2022-12-11T21:46:28.800Z,72.51
2022-12-11T21:51:37.948Z,72.69
2022-12-11T21:56:44.424Z,72.82
2022-12-11T22:01:47.429Z,72.62
2022-12-11T22:06:50.464Z,72.43
2022-12-11T22:11:58.167Z,72.30
2022-12-11T22:17:01.878Z,72.56
2022-12-11T22:22:04.909Z,72.55
2022-12-11T22:27:07.968Z,72.53
2022-12-11T22:32:10.961Z,72.36
2022-12-11T22:37:13.955Z,72.27
2022-12-11T22:42:17.598Z,72.19
2022-12-11T22:47:20.596Z,72.29
2022-12-11T22:52:23.577Z,72.17
2022-12-11T22:57:26.583Z,72.29
2022-12-11T23:02:29.630Z,72.06
2022-12-11T23:07:33.056Z,72.01
2022-12-11T23:12:36.974Z,72.09
2022-12-11T23:17:39.833Z,72.40
2022-12-11T23:22:42.830Z,72.37
2022-12-11T23:27:45.845Z,72.25
2022-12-11T23:32:48.858Z,72.21
2022-12-11T23:37:51.900Z,72.08
2022-12-11T23:42:54.901Z,72.10
2022-12-11T23:47:57.867Z,72.35
2022-12-11T23:53:00.889Z,72.43
2022-12-11T23:58:04.505Z,72.50
